Time;durP1;ratioP1;P1;durP2;ratioP2;P2;SDS_P1;SDS_P2;PMS_P1;PMS_P2;Temp;Humidity;BMP_temperature;BMP_pressure;BME280_temperature;BME280_humidity;BME280_pressure;Samples;Min_cycle;Max_cycle;Signal;HPM_P1;HPM_P2
2023/09/22 00:00:15;;;;;;;1.23;1.23;;;;;;;21.91;100.00;99379.44;5111780;28;20226;-69
2023/09/22 00:02:43;;;;;;;1.80;1.00;;;;;;;21.94;100.00;99379.22;5112006;28;20201;-69
2023/09/22 00:05:12;;;;;;;4.00;1.43;;;;;;;21.97;100.00;99394.63;5110200;28;20690;-69
2023/09/22 00:07:40;;;;;;;0.77;0.77;;;;;;;21.97;100.00;99397.25;5112304;28;20728;-69
2023/09/22 00:10:09;;;;;;;3.10;1.70;;;;;;;21.95;100.00;99391.31;5111586;28;20199;-70
2023/09/22 00:12:36;;;;;;;1.23;1.13;;;;;;;21.96;100.00;99386.94;5112179;28;20195;-69
2023/09/22 00:15:04;;;;;;;5.07;1.30;;;;;;;21.96;100.00;99387.78;5112014;28;20210;-69
2023/09/22 00:17:35;;;;;;;1.23;1.13;;;;;;;21.91;100.00;99371.63;5112317;28;20560;-69
2023/09/22 00:20:02;;;;;;;2.77;1.20;;;;;;;21.98;100.00;99380.66;5111872;28;20198;-70
2023/09/22 00:22:29;;;;;;;1.43;1.33;;;;;;;21.98;100.00;99370.22;5111468;28;20206;-69
2023/09/22 00:24:55;;;;;;;2.43;1.43;;;;;;;22.00;100.00;99372.72;5111699;28;20620;-69
2023/09/22 00:27:24;;;;;;;2.30;1.70;;;;;;;22.00;100.00;99377.09;5111923;28;20206;-69
2023/09/22 00:29:50;;;;;;;1.83;1.47;;;;;;;22.01;100.00;99387.41;5111650;28;20218;-69
2023/09/22 00:32:17;;;;;;;4.13;1.23;;;;;;;22.00;100.00;99387.53;5111609;28;20214;-69
2023/09/22 00:34:44;;;;;;;1.47;0.90;;;;;;;21.97;100.00;99384.19;5111698;28;20266;-69
2023/09/22 00:37:11;;;;;;;2.10;0.83;;;;;;;21.98;100.00;99378.03;5111431;28;20716;-69
2023/09/22 00:39:38;;;;;;;2.20;1.53;;;;;;;21.96;100.00;99382.56;5111269;28;20666;-69
2023/09/22 00:42:09;;;;;;;1.37;1.27;;;;;;;21.95;100.00;99380.88;5111530;28;20244;-69
2023/09/22 00:44:37;;;;;;;3.17;2.00;;;;;;;21.83;100.00;99366.16;5111666;28;20197;-70
2023/09/22 00:47:06;;;;;;;1.27;1.27;;;;;;;21.95;100.00;99374.84;5110434;28;20225;-70
2023/09/22 00:49:34;;;;;;;1.40;1.30;;;;;;;21.84;100.00;99365.19;5111700;28;20548;-70
2023/09/22 00:52:02;;;;;;;4.20;1.37;;;;;;;21.78;100.00;99370.88;5111368;28;20607;-70
2023/09/22 00:54:29;;;;;;;1.30;1.07;;;;;;;21.62;100.00;99393.84;5111198;28;20686;-70
2023/09/22 00:56:56;;;;;;;4.67;1.33;;;;;;;21.71;100.00;99432.28;5111698;28;20731;-70
2023/09/22 00:59:24;;;;;;;0.90;0.90;;;;;;;21.70;100.00;99412.38;5110820;28;20226;-69
2023/09/22 01:01:52;;;;;;;1.60;1.60;;;;;;;21.66;100.00;99405.72;5109736;28;20187;-70
2023/09/22 01:04:20;;;;;;;2.57;1.40;;;;;;;21.63;100.00;99400.75;5110373;28;20294;-70
2023/09/22 01:06:47;;;;;;;1.73;1.63;;;;;;;21.59;100.00;99406.28;5111093;28;20646;-70
2023/09/22 01:09:14;;;;;;;1.40;1.30;;;;;;;21.50;100.00;99389.56;5110858;28;20709;-70
2023/09/22 01:11:41;;;;;;;1.93;1.83;;;;;;;21.52;100.00;99398.09;5110983;28;20245;-70
2023/09/22 01:14:08;;;;;;;2.07;1.87;;;;;;;21.46;100.00;99404.63;5110729;28;20645;-70
2023/09/22 01:16:35;;;;;;;5.83;2.10;;;;;;;21.45;100.00;99402.13;5111124;28;20206;-70
2023/09/22 01:19:10;;;;;;;1.70;1.60;;;;;;;21.43;100.00;99404.84;5110881;28;20751;-70
2023/09/22 01:21:38;;;;;;;4.80;1.20;;;;;;;21.42;100.00;99402.38;5110947;28;20749;-70
2023/09/22 01:24:05;;;;;;;1.63;1.53;;;;;;;21.39;100.00;99413.84;5111208;28;20205;-70
2023/09/22 01:26:32;;;;;;;1.40;1.40;;;;;;;21.41;100.00;99405.91;5110017;28;20197;-70
2023/09/22 01:28:59;;;;;;;1.40;1.40;;;;;;;21.40;100.00;99406.84;5111024;28;20198;-70
2023/09/22 01:31:26;;;;;;;1.73;1.63;;;;;;;21.39;100.00;99408.63;5110756;28;20224;-70
2023/09/22 01:33:52;;;;;;;1.60;1.50;;;;;;;21.36;100.00;99413.22;5110647;28;20211;-70
2023/09/22 01:36:19;;;;;;;1.23;1.23;;;;;;;21.30;100.00;99413.69;5111041;28;20575;-70
2023/09/22 01:38:47;;;;;;;2.27;1.33;;;;;;;21.31;100.00;99420.56;5111094;28;20662;-70
2023/09/22 01:41:14;;;;;;;2.10;1.50;;;;;;;21.28;100.00;99431.22;5110555;28;20230;-69
2023/09/22 01:43:41;;;;;;;1.20;1.10;;;;;;;21.26;100.00;99420.09;5109181;28;20197;-69
2023/09/22 01:46:08;;;;;;;1.43;1.43;;;;;;;21.27;100.00;99424.34;5110818;28;20248;-69
2023/09/22 01:48:35;;;;;;;6.80;1.60;;;;;;;21.23;100.00;99422.91;5110810;28;20204;-69
2023/09/22 01:51:02;;;;;;;3.00;1.93;;;;;;;21.20;100.00;99428.34;5110797;28;20703;-69
2023/09/22 01:53:29;;;;;;;2.33;1.70;;;;;;;21.20;100.00;99428.34;5110928;28;20229;-69
2023/09/22 01:55:57;;;;;;;3.40;1.87;;;;;;;21.15;100.00;99430.47;5110048;28;20209;-69
2023/09/22 01:58:25;;;;;;;2.17;1.97;;;;;;;21.05;100.00;99424.22;5110512;28;20259;-69
2023/09/22 02:00:51;;;;;;;2.33;2.23;;;;;;;20.91;100.00;99418.22;5110571;28;20201;-69
2023/09/22 02:03:18;;;;;;;1.83;1.70;;;;;;;20.86;100.00;99425.56;5110825;28;20207;-69
2023/09/22 02:05:45;;;;;;;2.30;2.20;;;;;;;20.83;100.00;99425.78;5110507;28;20205;-69
2023/09/22 02:08:12;;;;;;;1.70;1.57;;;;;;;20.79;100.00;99419.13;5110884;28;20206;-69
2023/09/22 02:10:39;;;;;;;2.43;2.23;;;;;;;20.65;100.00;99415.81;5110060;28;20303;-69
2023/09/22 02:13:08;;;;;;;3.03;1.73;;;;;;;20.76;100.00;99434.97;5112591;28;20237;-70
2023/09/22 02:15:36;;;;;;;2.50;2.30;;;;;;;20.75;100.00;99441.13;5114458;28;20206;-70
2023/09/22 02:18:03;;;;;;;1.63;1.53;;;;;;;20.76;100.00;99432.38;5114415;28;20321;-70
2023/09/22 02:20:30;;;;;;;1.90;1.80;;;;;;;20.72;100.00;99430.91;5114465;28;20198;-70
2023/09/22 02:22:58;;;;;;;2.27;2.17;;;;;;;20.66;100.00;99448.75;5114273;28;20190;-70
2023/09/22 02:25:25;;;;;;;2.00;1.90;;;;;;;20.64;100.00;99441.06;5113713;28;20201;-70
2023/09/22 02:27:53;;;;;;;2.13;1.90;;;;;;;20.66;100.00;99428.75;5113708;28;20665;-70
2023/09/22 02:30:22;;;;;;;2.20;2.00;;;;;;;20.65;100.00;99421.88;5113957;28;20284;-70
2023/09/22 02:32:50;;;;;;;3.67;2.00;;;;;;;20.66;100.00;99407.06;5113826;27;20217;-69
2023/09/22 02:35:17;;;;;;;2.00;1.80;;;;;;;20.60;100.00;99405.75;5114261;28;20195;-69
2023/09/22 02:37:43;;;;;;;1.77;1.67;;;;;;;20.58;100.00;99399.78;5113837;28;20197;-69
2023/09/22 02:40:13;;;;;;;1.83;1.80;;;;;;;20.58;100.00;99414.63;5113867;28;20564;-69
2023/09/22 02:42:39;;;;;;;2.93;2.73;;;;;;;20.51;100.00;99419.41;5113726;28;20231;-69
2023/09/22 02:45:08;;;;;;;1.60;1.50;;;;;;;20.49;100.00;99410.88;5113261;28;20202;-69
2023/09/22 02:47:37;;;;;;;2.23;2.13;;;;;;;20.49;100.00;99416.06;5113723;28;20712;-69
2023/09/22 02:50:05;;;;;;;1.40;1.17;;;;;;;20.48;100.00;99419.63;5113861;28;20202;-69
2023/09/22 02:52:33;;;;;;;2.20;2.10;;;;;;;20.46;100.00;99395.47;5113742;27;20266;-69
2023/09/22 02:55:00;;;;;;;3.53;2.03;;;;;;;20.52;100.00;99405.44;5112904;28;20202;-69
2023/09/22 02:57:27;;;;;;;2.80;2.60;;;;;;;20.52;100.00;99405.44;5113539;28;20213;-69
2023/09/22 02:59:54;;;;;;;2.10;2.00;;;;;;;20.52;100.00;99400.22;5112889;28;20285;-69
2023/09/22 03:02:21;;;;;;;2.07;1.97;;;;;;;20.52;100.00;99410.66;5113635;28;20285;-69
2023/09/22 03:04:49;;;;;;;2.10;2.00;;;;;;;20.43;100.00;99395.69;5113546;28;20198;-69
2023/09/22 03:07:16;;;;;;;2.10;2.00;;;;;;;20.50;100.00;99404.72;5112824;28;20230;-69
2023/09/22 03:09:43;;;;;;;4.93;2.40;;;;;;;20.47;100.00;99406.72;5113357;28;20579;-69
2023/09/22 03:12:10;;;;;;;2.70;2.30;;;;;;;20.42;100.00;99410.47;5113015;28;20288;-69
2023/09/22 03:14:37;;;;;;;2.77;2.57;;;;;;;20.41;100.00;99407.97;5113685;28;20198;-69
2023/09/22 03:17:04;;;;;;;2.87;2.77;;;;;;;20.40;100.00;99406.31;5113096;28;20196;-69
2023/09/22 03:19:30;;;;;;;3.00;2.30;;;;;;;20.38;100.00;99403.84;5113122;28;20205;-69
2023/09/22 03:21:59;;;;;;;3.93;2.03;;;;;;;20.35;100.00;99395.41;5112946;28;20223;-70
2023/09/22 03:24:26;;;;;;;2.87;2.67;;;;;;;20.32;100.00;99412.03;5111294;28;20198;-69
2023/09/22 03:26:53;;;;;;;2.37;2.27;;;;;;;20.26;100.00;99403.78;5112965;28;20210;-69
2023/09/22 03:29:20;;;;;;;2.10;2.00;;;;;;;19.93;100.00;99397.38;5112230;28;20263;-69
2023/09/22 03:31:46;;;;;;;2.13;2.03;;;;;;;19.82;100.00;99392.09;5112900;28;20218;-69
2023/09/22 03:34:13;;;;;;;2.33;2.20;;;;;;;19.79;100.00;99394.91;5113006;28;20205;-69
2023/09/22 03:36:41;;;;;;;2.87;2.57;;;;;;;19.80;100.00;99393.13;5112807;28;20608;-69
2023/09/22 03:39:12;;;;;;;3.97;2.23;;;;;;;19.84;100.00;99394.56;5112747;28;20288;-69
2023/09/22 03:41:39;;;;;;;3.03;2.73;;;;;;;19.85;100.00;99402.28;5112596;28;20251;-69
2023/09/22 03:44:07;;;;;;;4.83;2.67;;;;;;;19.88;100.00;99403.84;5112314;28;20193;-69
2023/09/22 03:46:34;;;;;;;3.03;2.87;;;;;;;19.90;100.00;99402.78;5112264;28;20319;-69
2023/09/22 03:49:03;;;;;;;2.97;2.87;;;;;;;19.74;100.00;99412.56;5112637;28;20208;-69
2023/09/22 03:51:30;;;;;;;2.57;2.37;;;;;;;19.64;100.00;99427.16;5112331;28;20286;-69
2023/09/22 03:53:57;;;;;;;3.23;2.10;;;;;;;19.52;100.00;99407.16;5112049;28;20253;-69
2023/09/22 03:56:25;;;;;;;2.77;2.57;;;;;;;19.43;100.00;99418.16;5112095;28;20225;-69
2023/09/22 03:58:52;;;;;;;2.40;2.30;;;;;;;19.36;100.00;99422.06;5111911;28;20205;-69
2023/09/22 04:01:20;;;;;;;2.17;2.07;;;;;;;19.28;100.00;99420.00;5112305;28;20209;-69
2023/09/22 04:03:47;;;;;;;7.10;2.90;;;;;;;19.33;100.00;99422.25;5112025;28;20200;-69
2023/09/22 04:06:14;;;;;;;5.63;2.90;;;;;;;19.31;100.00;99424.97;5111643;28;20242;-69
2023/09/22 04:08:41;;;;;;;2.97;2.77;;;;;;;19.35;100.00;99430.81;5110840;28;20200;-69
2023/09/22 04:11:09;;;;;;;3.20;3.00;;;;;;;19.39;100.00;99424.47;5112133;28;20199;-69
2023/09/22 04:13:38;;;;;;;2.27;2.17;;;;;;;19.44;100.00;99425.03;5111522;28;20658;-69
2023/09/22 04:16:05;;;;;;;3.03;2.83;;;;;;;19.47;100.00;99424.84;5112230;28;20695;-69
2023/09/22 04:18:31;;;;;;;2.97;2.77;;;;;;;19.51;100.00;99423.72;5112125;28;20205;-69
2023/09/22 04:21:01;;;;;;;2.43;2.33;;;;;;;19.51;100.00;99431.50;5111850;28;20212;-69
2023/09/22 04:23:28;;;;;;;3.03;2.83;;;;;;;19.54;100.00;99420.06;5111598;28;20222;-71
2023/09/22 04:25:55;;;;;;;3.30;2.87;;;;;;;19.53;100.00;99421.81;5111594;28;20699;-69
2023/09/22 04:28:24;;;;;;;2.50;2.40;;;;;;;19.57;100.00;99431.09;5110977;28;20199;-69
2023/09/22 04:30:54;;;;;;;2.63;2.53;;;;;;;19.58;100.00;99424.94;5111535;28;20240;-69
2023/09/22 04:33:21;;;;;;;6.87;3.03;;;;;;;19.60;100.00;99443.06;5110881;28;20297;-69
2023/09/22 04:35:50;;;;;;;2.70;2.50;;;;;;;19.58;100.00;99437.94;5111064;28;20209;-69
2023/09/22 04:38:17;;;;;;;3.10;2.80;;;;;;;19.64;100.00;99442.75;5111087;28;20237;-69
2023/09/22 04:40:44;;;;;;;4.00;2.60;;;;;;;19.69;100.00;99442.44;5110673;28;20208;-69
2023/09/22 04:43:12;;;;;;;5.50;2.87;;;;;;;19.71;100.00;99444.00;5110837;28;20652;-69
2023/09/22 04:45:40;;;;;;;3.87;3.50;;;;;;;19.71;100.00;99438.00;5111171;28;20665;-69
2023/09/22 04:48:08;;;;;;;3.80;3.27;;;;;;;19.75;100.00;99450.66;5111727;28;20201;-69
2023/09/22 04:50:35;;;;;;;2.67;2.57;;;;;;;19.77;100.00;99459.19;5111370;28;20582;-69
2023/09/22 04:53:02;;;;;;;3.23;2.93;;;;;;;19.78;100.00;99455.66;5109464;28;20590;-69
2023/09/22 04:55:34;;;;;;;5.00;3.27;;;;;;;19.82;100.00;99461.50;5110714;28;20198;-69
2023/09/22 04:58:01;;;;;;;4.80;2.40;;;;;;;19.87;100.00;99459.44;5110642;28;20204;-69
2023/09/22 05:00:28;;;;;;;4.87;2.40;;;;;;;19.93;100.00;99459.81;5109700;28;20207;-69
2023/09/22 05:02:55;;;;;;;4.03;2.50;;;;;;;19.99;100.00;99457.75;5111203;28;20597;-69
2023/09/22 05:05:23;;;;;;;4.00;2.80;;;;;;;20.08;100.00;99452.75;5111040;28;20240;-69
2023/09/22 05:07:53;;;;;;;7.37;2.03;;;;;;;20.16;100.00;99449.66;5110849;28;20213;-69
2023/09/22 05:10:20;;;;;;;3.47;2.53;;;;;;;20.21;100.00;99452.75;5107303;28;20210;-69
2023/09/22 05:12:47;;;;;;;5.10;2.90;;;;;;;20.28;100.00;99454.88;5109719;28;20221;-69
2023/09/22 05:15:14;;;;;;;3.17;2.87;;;;;;;20.35;100.00;99466.53;5110395;28;20247;-69
2023/09/22 05:17:40;;;;;;;3.40;3.10;;;;;;;20.42;100.00;99459.09;5109758;28;20210;-69
2023/09/22 05:20:13;;;;;;;2.70;2.50;;;;;;;20.54;100.00;99450.47;5110293;28;20202;-69
2023/09/22 05:22:41;;;;;;;4.23;3.80;;;;;;;20.68;100.00;99450.31;5110503;28;20285;-70
2023/09/22 05:25:10;;;;;;;3.00;2.80;;;;;;;20.76;100.00;99448.00;5111073;28;20202;-69
2023/09/22 05:27:37;;;;;;;6.57;4.00;;;;;;;20.83;100.00;99451.00;5110683;28;20297;-69
2023/09/22 05:30:06;;;;;;;3.93;3.63;;;;;;;20.94;100.00;99459.72;5108753;28;20254;-69
2023/09/22 05:32:33;;;;;;;3.60;2.93;;;;;;;21.05;100.00;99461.56;5109543;28;20253;-70
2023/09/22 05:35:00;;;;;;;3.60;3.40;;;;;;;21.19;100.00;99457.97;5109510;28;20206;-71
2023/09/22 05:37:26;;;;;;;3.73;3.43;;;;;;;21.30;100.00;99465.84;5110029;28;20620;-71
2023/09/22 05:39:54;;;;;;;3.43;3.13;;;;;;;21.45;100.00;99464.75;5109286;28;20253;-70
2023/09/22 05:42:21;;;;;;;3.30;3.10;;;;;;;21.57;100.00;99471.66;5108448;28;20194;-72
2023/09/22 05:44:48;;;;;;;3.30;3.00;;;;;;;21.68;100.00;99476.09;5108289;28;20262;-72
2023/09/22 05:47:16;;;;;;;4.17;2.80;;;;;;;21.79;100.00;99495.19;5110195;28;21855;-72
2023/09/22 05:49:42;;;;;;;3.10;2.90;;;;;;;22.00;100.00;99497.19;5112974;28;20539;-72
2023/09/22 05:52:09;;;;;;;3.27;3.07;;;;;;;22.15;100.00;99506.47;5113338;28;20218;-73
2023/09/22 05:54:36;;;;;;;3.10;2.90;;;;;;;22.31;100.00;99501.72;5113441;27;20259;-72
2023/09/22 05:57:04;;;;;;;2.90;2.60;;;;;;;22.41;100.00;99492.25;5113423;28;20243;-72
2023/09/22 05:59:31;;;;;;;5.97;3.43;;;;;;;22.55;100.00;99489.41;5110844;28;20599;-72
2023/09/22 06:01:59;;;;;;;2.67;2.47;;;;;;;22.65;100.00;99490.31;5112541;28;20195;-72
2023/09/22 06:04:26;;;;;;;3.10;2.90;;;;;;;22.58;100.00;99478.72;5112032;28;20678;-72
2023/09/22 06:06:54;;;;;;;2.70;2.50;;;;;;;22.75;100.00;99486.06;5111104;28;20604;-72
2023/09/22 06:09:21;;;;;;;2.90;2.70;;;;;;;22.83;100.00;99499.38;5109807;28;20209;-73
2023/09/22 06:11:48;;;;;;;2.37;2.27;;;;;;;22.95;100.00;99487.94;5105046;28;20574;-72
2023/09/22 06:14:16;;;;;;;2.50;2.40;;;;;;;23.16;98.29;99489.81;5104094;28;20845;-73
2023/09/22 06:16:43;;;;;;;2.07;1.97;;;;;;;23.17;94.27;99491.44;5099787;28;20291;-72
2023/09/22 06:19:11;;;;;;;2.60;2.40;;;;;;;23.29;94.54;99501.78;5111423;28;20649;-73
2023/09/22 06:21:38;;;;;;;1.60;1.60;;;;;;;23.34;95.62;99502.22;5112842;28;20290;-72
2023/09/22 06:24:06;;;;;;;2.37;2.27;;;;;;;23.51;95.35;99498.28;5113012;28;20229;-73
2023/09/22 06:26:34;;;;;;;2.17;2.00;;;;;;;23.64;93.52;99492.84;5110562;28;20199;-69
2023/09/22 06:29:05;;;;;;;4.07;2.10;;;;;;;23.71;91.92;99497.47;5112684;28;20213;-71
2023/09/22 06:31:33;;;;;;;2.40;2.27;;;;;;;23.75;91.14;99498.03;5113377;28;20202;-73
2023/09/22 06:34:00;;;;;;;1.97;1.87;;;;;;;23.69;91.26;99498.53;5113063;28;20701;-72
2023/09/22 06:36:27;;;;;;;1.93;1.93;;;;;;;23.74;90.64;99502.44;5113490;28;20202;-72
2023/09/22 06:38:54;;;;;;;2.37;2.00;;;;;;;23.81;90.86;99493.09;5113211;28;20199;-71
2023/09/22 06:41:20;;;;;;;2.20;2.10;;;;;;;24.03;89.34;99505.25;5113421;28;20666;-72
2023/09/22 06:43:47;;;;;;;2.93;1.73;;;;;;;24.12;89.10;99511.53;5112924;28;20230;-70
2023/09/22 06:46:15;;;;;;;1.67;1.60;;;;;;;23.95;87.03;99520.75;5112718;28;20325;-66
2023/09/22 06:48:44;;;;;;;1.70;1.60;;;;;;;23.91;88.38;99514.94;5112968;28;20291;-66
2023/09/22 06:51:16;;;;;;;2.60;2.13;;;;;;;24.15;88.16;99517.34;5112985;28;20666;-66
2023/09/22 06:53:43;;;;;;;1.83;1.73;;;;;;;24.27;87.42;99525.94;5113403;28;20301;-66
2023/09/22 06:56:10;;;;;;;1.63;1.53;;;;;;;24.42;87.11;99524.69;5111877;28;20788;-66
2023/09/22 06:58:40;;;;;;;2.20;2.00;;;;;;;24.46;87.21;99524.25;5109631;28;20203;-65
2023/09/22 07:01:09;;;;;;;2.80;2.03;;;;;;;24.55;85.15;99530.53;5111457;28;20260;-68
2023/09/22 07:03:37;;;;;;;1.60;1.60;;;;;;;24.79;84.83;99530.19;5111984;28;20199;-67
2023/09/22 07:06:07;;;;;;;1.67;1.57;;;;;;;24.77;83.79;99530.34;5112112;28;20206;-68
2023/09/22 07:08:35;;;;;;;1.63;1.53;;;;;;;24.96;82.03;99527.81;5112477;27;20241;-68
2023/09/22 07:11:07;;;;;;;2.27;2.17;;;;;;;25.04;81.61;99530.56;5111758;28;20210;-68
2023/09/22 07:13:34;;;;;;;2.67;1.90;;;;;;;24.99;81.08;99519.66;5113901;27;20231;-67
2023/09/22 07:16:01;;;;;;;1.83;1.73;;;;;;;25.21;81.30;99534.34;5112166;28;20234;-69
2023/09/22 07:18:28;;;;;;;2.00;1.90;;;;;;;25.36;81.24;99527.75;5112039;28;20205;-67
2023/09/22 07:20:55;;;;;;;1.30;1.30;;;;;;;25.62;79.93;99538.56;5110883;28;20615;-68
2023/09/22 07:23:24;;;;;;;1.90;1.80;;;;;;;25.66;78.32;99534.69;5111630;28;20195;-67
2023/09/22 07:26:01;;;;;;;1.33;1.33;;;;;;;25.81;77.79;99538.56;5111166;28;20206;-67
2023/09/22 07:28:28;;;;;;;1.80;1.40;;;;;;;25.82;75.97;99544.63;5111661;28;20199;-67
2023/09/22 07:30:55;;;;;;;1.63;1.53;;;;;;;25.74;76.51;99532.22;5111219;28;20670;-68
2023/09/22 07:33:24;;;;;;;1.93;1.67;;;;;;;25.83;77.16;99538.41;5111669;28;20222;-67
2023/09/22 07:35:51;;;;;;;1.77;1.67;;;;;;;26.04;77.71;99539.91;5112278;28;20230;-67
2023/09/22 07:38:19;;;;;;;1.10;1.10;;;;;;;26.23;76.93;99543.50;5111292;28;20633;-68
2023/09/22 07:40:47;;;;;;;1.50;1.50;;;;;;;26.26;75.50;99553.75;5112612;28;20594;-67
2023/09/22 07:43:14;;;;;;;0.83;0.83;;;;;;;26.47;75.95;99551.72;5112139;28;20219;-67
2023/09/22 07:45:41;;;;;;;1.13;1.13;;;;;;;26.69;75.18;99538.22;5111117;28;20535;-67
2023/09/22 07:48:08;;;;;;;1.37;1.33;;;;;;;26.91;74.56;99535.28;5110318;28;20198;-67
2023/09/22 07:50:36;;;;;;;1.17;1.00;;;;;;;27.03;75.40;99533.25;5111106;28;20202;-67
2023/09/22 07:53:03;;;;;;;2.23;1.70;;;;;;;27.07;73.24;99535.47;5111032;28;20221;-66
2023/09/22 07:55:30;;;;;;;1.00;1.00;;;;;;;27.24;71.56;99540.91;5111189;28;20205;-67
2023/09/22 07:57:59;;;;;;;1.00;1.00;;;;;;;27.34;70.38;99541.63;5110667;28;20592;-67
2023/09/22 08:00:27;;;;;;;1.70;1.63;;;;;;;27.43;70.78;99544.22;5111350;28;20212;-67
2023/09/22 08:02:54;;;;;;;1.30;1.30;;;;;;;27.55;69.82;99539.59;5111191;28;20195;-67
2023/09/22 08:05:21;;;;;;;1.00;1.00;;;;;;;27.67;69.09;99538.38;5110575;28;20227;-67
2023/09/22 08:07:50;;;;;;;1.10;1.10;;;;;;;27.80;70.91;99538.81;5111247;28;20201;-67
2023/09/22 08:10:18;;;;;;;2.20;1.07;;;;;;;27.85;70.00;99520.72;5107852;28;20233;-67
2023/09/22 08:12:46;;;;;;;1.57;1.47;;;;;;;28.01;69.41;99530.59;5109694;28;20300;-67
2023/09/22 08:15:15;;;;;;;1.20;1.20;;;;;;;28.09;69.02;99517.47;5109370;28;20203;-67
2023/09/22 08:17:43;;;;;;;1.13;1.13;;;;;;;28.27;68.94;99530.63;5110550;28;20342;-67
2023/09/22 08:20:12;;;;;;;2.37;1.30;;;;;;;28.09;67.53;99518.31;5110471;28;20605;-67
2023/09/22 08:22:40;;;;;;;1.33;1.30;;;;;;;28.14;67.16;99516.03;5110814;28;20199;-67
2023/09/22 08:25:09;;;;;;;1.90;1.80;;;;;;;28.26;66.39;99529.78;5110211;28;20232;-66
2023/09/22 08:27:36;;;;;;;1.03;1.03;;;;;;;28.15;65.75;99527.41;5110240;28;20201;-66
2023/09/22 08:30:10;;;;;;;1.20;1.20;;;;;;;28.22;65.88;99517.06;5109365;28;20210;-66
2023/09/22 08:32:40;;;;;;;1.90;1.27;;;;;;;28.11;67.52;99515.53;5109324;28;20205;-67
2023/09/22 08:35:09;;;;;;;4.10;1.40;;;;;;;28.26;68.51;99510.50;5110403;28;20226;-66
2023/09/22 08:37:40;;;;;;;1.00;0.97;;;;;;;28.31;67.65;99511.69;5110775;28;20206;-66
2023/09/22 08:40:09;;;;;;;1.17;1.17;;;;;;;28.44;67.68;99513.88;5109945;28;20755;-71
2023/09/22 08:42:37;;;;;;;1.23;1.20;;;;;;;28.63;65.85;99516.28;5108518;28;20202;-67
2023/09/22 08:45:07;;;;;;;1.20;1.17;;;;;;;28.37;65.77;99520.81;5109647;28;20559;-66
2023/09/22 08:47:39;;;;;;;1.00;1.00;;;;;;;28.58;65.09;99515.94;5109843;28;20722;-67
2023/09/22 08:50:11;;;;;;;1.80;1.27;;;;;;;28.79;64.62;99511.13;5110130;28;20199;-67
2023/09/22 08:52:39;;;;;;;1.50;1.25;;;;;;;28.87;65.70;99505.88;5109639;28;20198;-68
2023/09/22 08:55:11;;;;;;;0.90;0.90;;;;;;;28.81;63.63;99506.53;5109503;28;20548;-66
2023/09/22 08:57:40;;;;;;;1.23;1.17;;;;;;;29.04;65.02;99510.22;5111204;28;20251;-66
2023/09/22 09:00:12;;;;;;;1.20;1.13;;;;;;;29.18;64.21;99501.66;5111261;28;20248;-66
2023/09/22 09:02:39;;;;;;;3.05;1.50;;;;;;;29.32;65.67;99488.84;5111115;28;20282;-67
2023/09/22 09:05:20;;;;;;;1.25;1.17;;;;;;;29.16;63.17;99486.97;5110171;28;20194;-67
2023/09/22 09:07:47;;;;;;;1.00;1.00;;;;;;;29.16;63.23;99477.25;5110707;28;20218;-66
2023/09/22 09:10:25;;;;;;;1.00;0.90;;;;;;;29.15;62.41;99480.88;5110440;28;20199;-68
2023/09/22 09:12:52;;;;;;;1.02;1.02;;;;;;;29.12;61.76;99478.56;5110394;28;20195;-67
2023/09/22 09:15:21;;;;;;;0.98;0.98;;;;;;;29.02;62.41;99459.38;5110747;28;20198;-67
2023/09/22 09:18:03;;;;;;;0.98;0.98;;;;;;;29.16;64.04;99464.03;5111146;28;20256;-65
2023/09/22 09:20:33;;;;;;;1.13;1.13;;;;;;;28.91;64.67;99466.81;5108718;28;20224;-66
2023/09/22 09:23:00;;;;;;;1.05;1.05;;;;;;;29.16;62.84;99471.97;5109165;28;20239;-66
2023/09/22 09:25:30;;;;;;;1.57;1.10;;;;;;;29.24;63.86;99465.06;5110523;28;20205;-66
2023/09/22 09:28:06;;;;;;;1.23;1.23;;;;;;;29.45;62.43;99466.25;5108506;28;20234;-65
2023/09/22 09:30:33;;;;;;;1.05;1.05;;;;;;;29.68;63.41;99461.13;5107397;28;20215;-66
2023/09/22 09:33:09;;;;;;;0.80;0.80;;;;;;;29.86;62.00;99459.13;5109207;28;20210;-66
2023/09/22 09:35:38;;;;;;;0.93;0.93;;;;;;;29.94;60.96;99458.31;5107558;28;20786;-66
2023/09/22 09:38:06;;;;;;;0.95;0.95;;;;;;;30.02;61.04;99455.63;5108941;28;20758;-66
2023/09/22 09:40:37;;;;;;;1.45;0.88;;;;;;;29.90;58.23;99457.81;5110012;28;20203;-65
2023/09/22 09:43:06;;;;;;;3.38;1.35;;;;;;;29.85;60.42;99452.22;5108449;28;20206;-65
2023/09/22 09:45:36;;;;;;;3.25;1.00;;;;;;;29.74;60.07;99449.88;5108785;28;20210;-66
2023/09/22 09:48:09;;;;;;;1.10;1.00;;;;;;;29.49;59.41;99430.59;5108329;28;20216;-66
2023/09/22 09:50:41;;;;;;;1.27;1.27;;;;;;;29.72;60.78;99443.94;5108362;28;20598;-66
2023/09/22 09:53:18;;;;;;;1.35;1.00;;;;;;;29.76;59.82;99418.81;5107717;28;20236;-66
2023/09/22 09:55:46;;;;;;;1.05;0.80;;;;;;;29.73;58.57;99437.66;5108172;28;20198;-65
2023/09/22 09:58:15;;;;;;;2.15;0.88;;;;;;;29.72;58.35;99436.03;5108852;28;20211;-66
2023/09/22 10:00:42;;;;;;;0.80;0.80;;;;;;;29.59;58.96;99441.81;5109286;28;20212;-66
2023/09/22 10:03:12;;;;;;;0.93;0.93;;;;;;;29.49;58.76;99429.75;5109970;28;20222;-66
2023/09/22 10:05:42;;;;;;;1.25;1.25;;;;;;;29.63;61.58;99437.00;5109393;28;20194;-66
2023/09/22 10:08:13;;;;;;;0.80;0.80;;;;;;;29.64;61.38;99422.81;5109279;28;20199;-66
2023/09/22 10:10:41;;;;;;;1.63;1.15;;;;;;;29.46;59.58;99423.00;5108822;28;20203;-67
2023/09/22 10:13:08;;;;;;;0.77;0.77;;;;;;;29.50;60.07;99420.84;5109690;28;20636;-66
2023/09/22 10:15:56;;;;;;;1.48;1.38;;;;;;;29.75;59.29;99427.75;5109958;28;20624;-66
2023/09/22 10:18:44;;;;;;;1.33;1.23;;;;;;;29.87;59.54;99422.97;5108834;28;20207;-66
2023/09/22 10:21:32;;;;;;;5.22;1.02;;;;;;;29.82;57.71;99420.81;5106648;28;20212;-66
2023/09/22 10:24:17;;;;;;;0.85;0.85;;;;;;;30.02;58.70;99410.69;5112033;28;20195;-66
2023/09/22 10:27:14;;;;;;;1.20;1.10;;;;;;;30.15;58.24;99405.69;5108646;28;20210;-66
2023/09/22 10:29:52;;;;;;;2.90;0.98;;;;;;;30.21;58.31;99400.53;5109283;28;20203;-66
2023/09/22 10:32:26;;;;;;;1.25;1.00;;;;;;;30.24;57.87;99409.16;5109554;28;20264;-66
2023/09/22 10:34:53;;;;;;;0.90;0.90;;;;;;;30.24;58.02;99393.28;5112607;28;20715;-67
2023/09/22 10:37:24;;;;;;;2.50;1.08;;;;;;;30.30;57.49;99398.72;5111103;28;20649;-66
2023/09/22 10:39:52;;;;;;;1.17;0.80;;;;;;;30.40;59.04;99393.25;5112778;28;20199;-67
2023/09/22 10:42:19;;;;;;;1.58;0.90;;;;;;;30.45;58.15;99391.72;5111138;28;20198;-67
2023/09/22 10:44:56;;;;;;;0.70;0.70;;;;;;;30.46;57.60;99392.53;5112786;28;20290;-67
2023/09/22 11:02:24;;;;;;;0.80;0.80;;;;;;;31.06;56.34;99364.38;5126337;27;21107;-69
2023/09/22 11:04:50;;;;;;;0.63;0.63;;;;;;;31.12;56.80;99353.06;5125345;28;20289;-69
2023/09/22 11:07:33;;;;;;;0.82;0.82;;;;;;;30.91;56.55;99360.84;5125875;27;20205;-70
2023/09/22 11:10:00;;;;;;;0.63;0.63;;;;;;;30.95;54.64;99351.56;5125198;27;20224;-69
2023/09/22 11:12:27;;;;;;;1.02;1.02;;;;;;;30.84;55.15;99329.94;5127955;28;20206;-69
2023/09/22 11:14:54;;;;;;;0.70;0.70;;;;;;;30.96;55.15;99350.56;5127935;27;20684;-69
2023/09/22 11:17:22;;;;;;;0.60;0.60;;;;;;;31.00;55.14;99343.91;5125459;27;20637;-70
2023/09/22 11:19:54;;;;;;;1.00;1.00;;;;;;;31.05;54.81;99341.53;5128301;27;20247;-69
2023/09/22 11:22:21;;;;;;;0.70;0.70;;;;;;;31.09;56.03;99336.72;5125616;28;20194;-69
2023/09/22 11:24:48;;;;;;;4.85;0.80;;;;;;;31.07;53.79;99334.25;5126777;27;20206;-71
2023/09/22 11:27:14;;;;;;;0.77;0.77;;;;;;;30.96;54.42;99333.84;5124328;28;20259;-70
2023/09/22 11:29:41;;;;;;;0.80;0.80;;;;;;;31.06;54.04;99327.31;5125806;27;20204;-70
2023/09/22 11:32:08;;;;;;;0.90;0.90;;;;;;;30.93;55.35;99284.69;5126023;27;20259;-71
2023/09/22 11:34:47;;;;;;;1.00;1.00;;;;;;;31.23;55.18;99323.53;5130414;27;20234;-71
2023/09/22 11:37:14;;;;;;;1.95;1.00;;;;;;;31.17;53.38;99308.34;5128250;27;20657;-70
2023/09/22 11:39:40;;;;;;;0.93;0.93;;;;;;;31.10;53.37;99310.06;5126508;27;20265;-69
2023/09/22 11:42:07;;;;;;;0.80;0.80;;;;;;;31.13;55.08;99314.16;5127961;27;20198;-70
2023/09/22 11:44:34;;;;;;;0.90;0.90;;;;;;;31.19;54.16;99308.97;5127315;28;20202;-70
2023/09/22 11:47:02;;;;;;;1.13;1.13;;;;;;;31.32;54.46;99310.19;5125383;27;20198;-69
2023/09/22 11:49:36;;;;;;;5.53;1.52;;;;;;;31.28;52.96;99298.31;5129475;27;20194;-70